Terminal Aerodrome Forecast
Issued by NWS Chicago, IL

Home | Current Version | Previous Version | Graphics & Text | Print | Product List | Glossary On
Versions: 1 2 3 4 5 6 7 8 9 10 11 12 13 14 15 16 17 18 19 20 21 22 23 24 25 26 27 28
000
FTUS43 KLOT 141539 AAA
TAFRFD
TAF AMD
KRFD 141539Z 1416/1512 18006KT P6SM FEW250
     FM141700 17012KT P6SM OVC050
     FM142300 18012G18KT 5SM -SN OVC030
     FM150100 16014G20KT 1 1/2SM -SN BKN015 OVC025
     FM150500 17012G18KT 1 1/2SM -SN SCT009 OVC012=

USA.gov is the U.S. government's official web portal to all federal, state and local government web resources and services.